Time;durP1;ratioP1;P1;durP2;ratioP2;P2;SDS_P1;SDS_P2;PMS_P1;PMS_P2;Temp;Humidity;BMP_temperature;BMP_pressure;BME280_temperature;BME280_humidity;BME280_pressure;Samples;Min_cycle;Max_cycle;Signal;HPM_P1;HPM_P2
2023/12/22 00:01:25;;;;;;;27.45;5.50;;;6.70;79.10;;;;;;5075310;28;20496;-81
2023/12/22 00:03:51;;;;;;;18.40;3.60;;;6.70;79.40;;;;;;5076033;28;20055;-79
2023/12/22 00:06:17;;;;;;;8.85;2.50;;;6.70;78.30;;;;;;5075767;28;20539;-80
2023/12/22 00:08:43;;;;;;;11.57;2.67;;;6.80;76.80;;;;;;5075597;28;20097;-80
2023/12/22 00:11:08;;;;;;;10.13;2.90;;;6.80;77.30;;;;;;5092536;28;20032;-80
2023/12/22 00:13:34;;;;;;;8.23;1.92;;;6.90;75.90;;;;;;5075389;28;20424;-80
2023/12/22 00:16:00;;;;;;;14.63;3.33;;;6.80;74.40;;;;;;5058925;28;20047;-82
2023/12/22 00:18:26;;;;;;;14.23;2.78;;;6.70;75.40;;;;;;5075589;28;20366;-81
2023/12/22 00:20:52;;;;;;;22.27;6.22;;;6.70;77.30;;;;;;5075152;28;20052;-79
2023/12/22 00:23:18;;;;;;;19.80;4.38;;;6.70;78.30;;;;;;5075323;28;20043;-80
2023/12/22 00:25:44;;;;;;;14.23;3.50;;;6.70;78.60;;;;;;5075169;28;20040;-80
2023/12/22 00:28:10;;;;;;;25.67;5.18;;;6.80;78.50;;;;;;5092105;28;20039;-80
2023/12/22 00:30:36;;;;;;;13.75;4.03;;;6.80;76.90;;;;;;5075143;28;20049;-81
2023/12/22 00:33:02;;;;;;;16.00;3.83;;;7.00;73.50;;;;;;5092352;28;20040;-81
2023/12/22 00:35:28;;;;;;;16.77;4.82;;;7.10;72.30;;;;;;5075519;28;20036;-80
2023/12/22 00:37:53;;;;;;;13.88;3.72;;;7.20;71.60;;;;;;5092333;28;20130;-80
2023/12/22 00:40:19;;;;;;;23.13;4.80;;;7.30;73.30;;;;;;5091969;28;20040;-81
2023/12/22 00:42:45;;;;;;;29.63;5.35;;;7.10;74.80;;;;;;5091967;28;20100;-81
2023/12/22 00:45:11;;;;;;;22.75;4.78;;;7.00;75.80;;;;;;5092368;28;20040;-82
2023/12/22 00:47:37;;;;;;;20.85;5.32;;;7.00;76.60;;;;;;5075268;28;20048;-81
2023/12/22 00:50:04;;;;;;;22.10;4.30;;;7.00;77.10;;;;;;5075298;28;20496;-80
2023/12/22 00:52:30;;;;;;;15.38;3.83;;;7.00;76.50;;;;;;5092110;28;20044;-81
2023/12/22 00:54:56;;;;;;;18.98;3.90;;;7.00;75.80;;;;;;5092255;28;20131;-80
2023/12/22 00:57:22;;;;;;;17.63;4.05;;;7.00;75.60;;;;;;5092358;28;20139;-81
2023/12/22 00:59:48;;;;;;;26.92;5.05;;;7.00;76.20;;;;;;5075169;28;20492;-81
2023/12/22 01:02:15;;;;;;;18.70;4.50;;;7.00;76.50;;;;;;5092020;28;20061;-79
2023/12/22 01:04:40;;;;;;;15.35;3.70;;;6.90;76.30;;;;;;5075206;28;20480;-79
2023/12/22 01:07:10;;;;;;;20.13;3.88;;;6.90;75.50;;;;;;5075343;28;20084;-79
2023/12/22 01:09:39;;;;;;;23.13;4.80;;;6.80;75.20;;;;;;5092696;28;20036;-81
2023/12/22 01:12:06;;;;;;;17.73;3.95;;;6.70;75.60;;;;;;5091880;28;20036;-80
2023/12/22 01:14:32;;;;;;;19.35;4.50;;;6.80;76.10;;;;;;5093933;28;20096;-80
2023/12/22 01:17:01;;;;;;;14.18;3.53;;;6.70;76.40;;;;;;5130076;27;20050;-80
2023/12/22 01:19:27;;;;;;;15.75;3.53;;;6.60;76.60;;;;;;5096795;27;20043;-81
2023/12/22 01:21:53;;;;;;;12.10;3.75;;;6.70;76.40;;;;;;5095729;28;20130;-81
2023/12/22 01:24:18;;;;;;;17.25;4.30;;;6.80;76.30;;;;;;5078773;28;20127;-79
2023/12/22 01:26:44;;;;;;;17.83;5.18;;;6.80;76.10;;;;;;5078674;28;20047;-80
2023/12/22 01:29:10;;;;;;;29.27;4.68;;;7.00;76.10;;;;;;5095871;28;20075;-79
2023/12/22 01:31:36;;;;;;;29.80;5.57;;;6.90;76.60;;;;;;5078696;28;20535;-79
2023/12/22 01:34:01;;;;;;;24.67;4.78;;;6.90;77.10;;;;;;5095467;28;20119;-79
2023/12/22 01:36:27;;;;;;;19.33;4.63;;;6.90;77.40;;;;;;5095468;28;20039;-81
2023/12/22 01:38:53;;;;;;;22.02;4.53;;;7.00;77.80;;;;;;5078811;28;20039;-80
2023/12/22 01:41:18;;;;;;;19.67;4.18;;;7.00;77.90;;;;;;5078557;28;20038;-79
2023/12/22 01:43:44;;;;;;;26.20;5.65;;;7.10;76.70;;;;;;5095509;28;20032;-80
2023/12/22 01:46:12;;;;;;;14.65;4.20;;;7.10;76.30;;;;;;5095315;28;20468;-79
2023/12/22 01:48:38;;;;;;;20.05;5.18;;;7.20;76.40;;;;;;5095171;28;20173;-80
2023/12/22 01:51:05;;;;;;;19.80;3.28;;;7.30;75.80;;;;;;5077907;28;20080;-80
2023/12/22 01:53:32;;;;;;;21.67;4.07;;;7.40;74.90;;;;;;5095088;28;20039;-80
2023/12/22 01:56:00;;;;;;;17.42;3.45;;;7.40;75.00;;;;;;5078405;28;20443;-79
2023/12/22 01:58:27;;;;;;;9.43;3.22;;;7.40;75.60;;;;;;5094711;28;20044;-79
2023/12/22 02:00:53;;;;;;;13.15;2.97;;;7.50;74.70;;;;;;5077969;28;20048;-81
2023/12/22 02:03:20;;;;;;;9.65;2.78;;;7.50;75.10;;;;;;5094864;28;20074;-80
2023/12/22 02:05:46;;;;;;;9.20;2.97;;;7.30;77.00;;;;;;5077972;28;20044;-80
2023/12/22 02:08:12;;;;;;;15.25;2.45;;;7.10;77.90;;;;;;5094994;27;20480;-79
2023/12/22 02:10:38;;;;;;;9.85;1.92;;;7.00;78.10;;;;;;5078124;28;20396;-79
2023/12/22 02:13:05;;;;;;;11.85;3.03;;;7.00;77.60;;;;;;5077894;28;20036;-80
2023/12/22 02:15:32;;;;;;;12.35;2.03;;;7.00;77.40;;;;;;5128807;27;20043;-79
2023/12/22 02:18:21;;;;;;;9.77;2.05;;;7.00;77.30;;;;;;5094775;28;20155;-80
2023/12/22 02:20:47;;;;;;;10.18;3.05;;;7.00;77.80;;;;;;5077724;28;20061;-79
2023/12/22 02:23:13;;;;;;;11.07;2.45;;;7.00;78.30;;;;;;5094644;28;20097;-79
2023/12/22 02:25:38;;;;;;;15.15;2.65;;;7.00;78.70;;;;;;5077437;28;20048;-80
2023/12/22 02:28:09;;;;;;;12.70;3.25;;;7.10;79.30;;;;;;5094375;28;20498;-80
2023/12/22 02:30:48;;;;;;;8.85;2.20;;;7.10;79.60;;;;;;5077592;28;20119;-80
2023/12/22 02:33:16;;;;;;;5.30;1.77;;;7.10;79.60;;;;;;5077451;28;20032;-79
2023/12/22 02:35:44;;;;;;;9.65;2.38;;;7.10;78.20;;;;;;5077502;28;20044;-80
2023/12/22 02:38:12;;;;;;;6.18;1.60;;;7.00;78.40;;;;;;5094283;28;20040;-80
2023/12/22 02:40:39;;;;;;;5.20;1.50;;;7.00;78.50;;;;;;5094221;28;20044;-79
2023/12/22 02:43:06;;;;;;;7.20;1.20;;;6.80;78.60;;;;;;5077244;28;20044;-79
2023/12/22 02:45:32;;;;;;;5.03;1.33;;;6.80;78.50;;;;;;5128244;27;20040;-80
2023/12/22 02:47:58;;;;;;;11.05;2.13;;;6.70;79.50;;;;;;5077011;28;20079;-81
2023/12/22 02:50:24;;;;;;;8.60;1.30;;;6.60;80.70;;;;;;5094270;28;20123;-81
2023/12/22 02:52:50;;;;;;;11.20;1.83;;;6.60;81.80;;;;;;5094245;28;20031;-80
2023/12/22 02:55:16;;;;;;;13.63;2.92;;;6.50;82.60;;;;;;5077341;28;20411;-80
2023/12/22 02:57:42;;;;;;;11.25;3.25;;;6.50;83.30;;;;;;5076985;28;20089;-80
2023/12/22 03:00:08;;;;;;;10.73;3.25;;;6.50;84.10;;;;;;5076815;28;20117;-80
2023/12/22 03:02:36;;;;;;;17.25;3.47;;;6.40;84.70;;;;;;5093717;28;20048;-79
2023/12/22 03:05:01;;;;;;;19.55;3.70;;;6.40;85.10;;;;;;5093849;28;20043;-80
2023/12/22 03:07:27;;;;;;;15.43;3.05;;;6.40;85.10;;;;;;5093457;28;20040;-80
2023/12/22 03:09:53;;;;;;;11.52;2.78;;;6.50;84.10;;;;;;5093586;28;20036;-80
2023/12/22 03:12:18;;;;;;;16.10;2.67;;;6.50;83.00;;;;;;5076971;28;20128;-80
2023/12/22 03:14:44;;;;;;;17.25;3.55;;;6.60;82.30;;;;;;5093477;28;20043;-80
2023/12/22 03:17:10;;;;;;;19.25;4.00;;;6.60;80.70;;;;;;5076812;28;20040;-79
2023/12/22 03:19:36;;;;;;;20.52;3.83;;;6.70;80.10;;;;;;5076419;28;20127;-79
2023/12/22 03:22:02;;;;;;;15.65;3.40;;;6.80;79.70;;;;;;5076254;28;20135;-80
2023/12/22 03:24:28;;;;;;;22.98;3.97;;;6.80;79.60;;;;;;5076048;28;20043;-81
2023/12/22 03:26:54;;;;;;;18.15;4.35;;;6.80;79.20;;;;;;5093049;28;20048;-81
2023/12/22 03:29:20;;;;;;;17.30;3.38;;;6.80;78.40;;;;;;5093500;28;20488;-80
2023/12/22 03:31:46;;;;;;;16.65;3.45;;;6.90;77.30;;;;;;5093323;28;20040;-79
2023/12/22 03:34:13;;;;;;;18.98;3.72;;;7.00;76.30;;;;;;5076158;28;20046;-80
2023/12/22 03:36:38;;;;;;;14.70;3.08;;;7.00;75.90;;;;;;5075496;28;20440;-80
2023/12/22 03:39:05;;;;;;;11.90;2.30;;;7.10;75.90;;;;;;5076546;28;20043;-80
2023/12/22 03:41:30;;;;;;;12.85;2.63;;;7.10;75.80;;;;;;5076122;28;20043;-80
2023/12/22 03:43:57;;;;;;;17.13;4.00;;;7.10;75.50;;;;;;5076149;28;20032;-79
2023/12/22 03:46:23;;;;;;;17.73;3.08;;;7.10;75.70;;;;;;5075646;28;20051;-80
2023/12/22 03:48:50;;;;;;;12.80;2.85;;;7.20;75.90;;;;;;5076143;28;20055;-80
2023/12/22 03:51:18;;;;;;;14.30;3.60;;;7.10;76.50;;;;;;5060584;28;20062;-80
2023/12/22 03:53:44;;;;;;;12.60;2.38;;;7.10;75.80;;;;;;5093027;28;20040;-80
2023/12/22 03:56:10;;;;;;;17.73;3.47;;;7.10;76.00;;;;;;5076066;28;20400;-79
2023/12/22 03:58:36;;;;;;;17.30;4.40;;;7.10;76.40;;;;;;5092721;28;20044;-79
2023/12/22 04:01:02;;;;;;;11.93;2.80;;;7.10;76.00;;;;;;5092741;28;20492;-80
2023/12/22 04:03:28;;;;;;;15.70;3.25;;;7.20;76.40;;;;;;5075797;28;20129;-80
2023/12/22 04:05:54;;;;;;;13.88;2.85;;;7.10;76.50;;;;;;5092759;28;20078;-80
2023/12/22 04:08:22;;;;;;;21.15;4.80;;;7.10;76.70;;;;;;5092274;28;20127;-80
2023/12/22 04:10:48;;;;;;;19.77;4.07;;;7.20;76.00;;;;;;5075924;28;20477;-82
2023/12/22 04:13:14;;;;;;;15.80;3.78;;;7.20;76.10;;;;;;5092955;28;20040;-80
2023/12/22 04:15:40;;;;;;;13.43;3.72;;;7.20;75.90;;;;;;5075674;28;20032;-79
2023/12/22 04:18:06;;;;;;;15.23;3.20;;;7.20;75.90;;;;;;5075620;28;20048;-80
2023/12/22 04:20:32;;;;;;;19.15;4.47;;;7.20;76.00;;;;;;5092441;28;20065;-80
2023/12/22 04:23:00;;;;;;;16.60;3.75;;;7.20;76.30;;;;;;5093357;27;20087;-80
2023/12/22 04:25:26;;;;;;;14.13;3.55;;;7.20;76.60;;;;;;5075848;28;20079;-81
2023/12/22 04:27:52;;;;;;;24.75;4.65;;;7.20;76.60;;;;;;5075858;28;20494;-81
2023/12/22 04:30:18;;;;;;;16.33;3.25;;;7.20;76.90;;;;;;5075580;28;20043;-79
2023/12/22 04:32:44;;;;;;;19.70;4.10;;;7.20;77.60;;;;;;5092565;28;20036;-80
2023/12/22 04:35:09;;;;;;;14.43;3.72;;;7.20;77.30;;;;;;5075817;28;20035;-81
2023/12/22 04:37:35;;;;;;;32.80;3.13;;;7.20;77.50;;;;;;5075794;28;20047;-80
2023/12/22 04:40:01;;;;;;;16.80;3.15;;;7.20;77.00;;;;;;5075502;28;20040;-80
2023/12/22 04:42:28;;;;;;;13.48;3.78;;;7.20;76.90;;;;;;5092469;28;20044;-80
2023/12/22 04:44:54;;;;;;;16.08;4.75;;;7.20;76.80;;;;;;5058760;28;20036;-79
2023/12/22 04:47:19;;;;;;;15.27;3.17;;;7.30;77.00;;;;;;5092054;28;20059;-80
2023/12/22 04:49:45;;;;;;;12.63;3.20;;;7.30;77.90;;;;;;5096322;28;20036;-79
2023/12/22 04:52:11;;;;;;;12.77;3.50;;;7.30;77.60;;;;;;5079853;28;20038;-80
2023/12/22 04:54:37;;;;;;;15.68;4.22;;;7.30;77.50;;;;;;5079236;28;20524;-80
2023/12/22 04:57:03;;;;;;;14.13;3.58;;;7.30;76.60;;;;;;5096235;28;20169;-80
2023/12/22 04:59:29;;;;;;;11.07;2.83;;;7.30;76.70;;;;;;5096294;28;20047;-79
2023/12/22 05:01:54;;;;;;;16.63;3.65;;;7.40;76.80;;;;;;5079253;28;20123;-80
2023/12/22 05:04:21;;;;;;;17.17;4.00;;;7.40;76.60;;;;;;5096317;28;20051;-80
2023/12/22 05:06:47;;;;;;;18.25;3.72;;;7.40;75.40;;;;;;5096394;28;20142;-80
2023/12/22 05:09:12;;;;;;;7.10;2.60;;;7.40;74.50;;;;;;5079092;28;20036;-80
2023/12/22 05:11:38;;;;;;;13.38;3.35;;;7.50;73.90;;;;;;5079111;28;20089;-79
2023/12/22 05:14:04;;;;;;;9.93;2.40;;;7.40;73.10;;;;;;5078886;28;20031;-80
2023/12/22 05:16:31;;;;;;;15.38;3.47;;;7.50;73.20;;;;;;5095850;28;20117;-80
2023/12/22 05:19:00;;;;;;;15.90;4.05;;;7.40;73.10;;;;;;5095621;28;20040;-79
2023/12/22 05:21:27;;;;;;;13.07;3.45;;;7.40;73.80;;;;;;5078739;28;20035;-80
2023/12/22 05:23:53;;;;;;;15.55;3.70;;;7.40;74.40;;;;;;5078898;28;20051;-79
2023/12/22 05:26:19;;;;;;;30.02;5.22;;;7.40;75.70;;;;;;5129852;27;20051;-79
2023/12/22 05:28:45;;;;;;;23.08;4.10;;;7.30;76.40;;;;;;5078591;28;20123;-79
2023/12/22 05:31:11;;;;;;;20.38;4.43;;;7.30;77.10;;;;;;5095941;28;20131;-79
2023/12/22 05:33:37;;;;;;;15.27;3.08;;;7.40;77.40;;;;;;5078499;28;20373;-80
2023/12/22 05:36:03;;;;;;;12.75;2.55;;;7.30;77.30;;;;;;5095601;28;20510;-81
2023/12/22 05:38:29;;;;;;;20.60;4.00;;;7.30;76.40;;;;;;5095428;28;20040;-79
2023/12/22 05:40:54;;;;;;;14.57;3.25;;;7.30;76.00;;;;;;5095509;28;20063;-81
2023/12/22 05:43:20;;;;;;;14.18;3.75;;;7.40;75.60;;;;;;5095447;28;20058;-80
2023/12/22 05:45:46;;;;;;;13.82;3.60;;;7.40;74.90;;;;;;5078290;28;20040;-79
2023/12/22 05:48:12;;;;;;;20.65;3.95;;;7.40;73.70;;;;;;5078009;28;20051;-80
2023/12/22 05:50:37;;;;;;;12.50;2.63;;;7.40;74.30;;;;;;5095173;28;20492;-81
2023/12/22 05:53:03;;;;;;;22.63;5.65;;;7.30;74.70;;;;;;5078044;28;20066;-80
2023/12/22 05:55:29;;;;;;;16.45;4.03;;;7.40;74.90;;;;;;5078229;28;20039;-79
2023/12/22 05:57:55;;;;;;;22.75;4.85;;;7.30;75.40;;;;;;5095063;28;20097;-79
2023/12/22 06:00:21;;;;;;;16.30;2.83;;;7.30;76.30;;;;;;5094354;28;20117;-79
2023/12/22 06:02:47;;;;;;;13.32;3.83;;;7.30;76.70;;;;;;5128951;27;20044;-79
2023/12/22 06:05:13;;;;;;;13.00;3.85;;;7.30;77.00;;;;;;5094911;28;20063;-79
2023/12/22 06:07:40;;;;;;;17.63;3.08;;;7.30;77.50;;;;;;5094716;28;20044;-80
2023/12/22 06:10:07;;;;;;;16.10;3.20;;;7.30;77.40;;;;;;5095116;28;20076;-80
2023/12/22 06:12:32;;;;;;;11.13;2.70;;;7.40;77.20;;;;;;5094998;28;20040;-79
2023/12/22 06:14:58;;;;;;;9.75;2.30;;;7.40;77.50;;;;;;5078061;28;20036;-79
2023/12/22 06:17:24;;;;;;;9.75;3.25;;;7.40;77.20;;;;;;5094653;28;20438;-79
2023/12/22 06:19:49;;;;;;;15.48;3.55;;;7.40;77.10;;;;;;5094543;28;20040;-79
2023/12/22 06:22:15;;;;;;;16.58;3.80;;;7.40;77.70;;;;;;5094651;28;20039;-80
2023/12/22 06:24:41;;;;;;;14.63;3.33;;;7.40;77.70;;;;;;5094430;28;20080;-79
2023/12/22 06:27:06;;;;;;;11.20;3.42;;;7.40;78.10;;;;;;5077478;28;20061;-79
2023/12/22 06:29:33;;;;;;;13.88;3.92;;;7.40;78.20;;;;;;5077761;28;20124;-80
2023/12/22 06:31:59;;;;;;;13.30;2.90;;;7.40;78.00;;;;;;5094547;28;20043;-80
2023/12/22 06:34:25;;;;;;;14.23;2.58;;;7.40;77.60;;;;;;5094328;28;20399;-79
2023/12/22 06:36:51;;;;;;;14.93;2.70;;;7.30;77.20;;;;;;5094267;28;20058;-80
2023/12/22 06:39:17;;;;;;;17.08;4.03;;;7.30;77.00;;;;;;5077768;28;20040;-79
2023/12/22 06:41:42;;;;;;;17.92;3.17;;;7.40;77.10;;;;;;5061537;28;20063;-79
2023/12/22 06:44:10;;;;;;;12.57;3.60;;;7.40;76.90;;;;;;5057191;28;20043;-79
2023/12/22 06:46:36;;;;;;;14.35;3.63;;;7.40;77.20;;;;;;5073608;28;20064;-79
2023/12/22 06:49:01;;;;;;;14.02;3.15;;;7.40;77.80;;;;;;5074034;28;20040;-80
2023/12/22 06:51:34;;;;;;;16.35;2.90;;;7.40;78.10;;;;;;5057188;28;20062;-80
2023/12/22 06:54:00;;;;;;;9.45;2.78;;;7.40;78.50;;;;;;5107860;28;20040;-79
2023/12/22 06:56:31;;;;;;;16.15;3.30;;;7.40;79.20;;;;;;5073746;28;20066;-79
2023/12/22 06:58:57;;;;;;;22.73;4.22;;;7.40;79.50;;;;;;5057008;28;20099;-79
2023/12/22 07:01:31;;;;;;;10.77;2.15;;;7.40;80.00;;;;;;5057603;28;20044;-79
2023/12/22 07:03:59;;;;;;;13.93;2.88;;;7.40;80.20;;;;;;5057074;28;20365;-78
2023/12/22 07:06:27;;;;;;;12.93;3.13;;;7.40;80.30;;;;;;5057040;28;20033;-79
2023/12/22 07:09:11;;;;;;;14.82;3.83;;;7.40;80.60;;;;;;5040382;28;20539;-79
2023/12/22 07:11:37;;;;;;;16.58;3.55;;;7.40;80.80;;;;;;5057202;28;20053;-79
2023/12/22 07:14:04;;;;;;;19.20;4.07;;;7.40;81.00;;;;;;5056740;28;20495;-79
2023/12/22 07:16:29;;;;;;;10.70;2.85;;;7.40;81.20;;;;;;5073382;28;20128;-79
2023/12/22 07:18:55;;;;;;;17.65;3.15;;;7.40;81.80;;;;;;5056929;28;20096;-79
2023/12/22 07:21:21;;;;;;;17.60;3.55;;;7.40;82.10;;;;;;5073406;28;20039;-80
2023/12/22 07:23:47;;;;;;;18.92;3.67;;;7.40;82.30;;;;;;5056665;28;20037;-78
2023/12/22 07:26:12;;;;;;;16.02;4.10;;;7.30;82.70;;;;;;5073178;28;20044;-79
2023/12/22 07:28:38;;;;;;;21.92;5.18;;;7.30;83.20;;;;;;5073319;28;20041;-79
2023/12/22 07:31:05;;;;;;;19.83;3.55;;;7.30;83.60;;;;;;5073227;28;20052;-79
2023/12/22 07:33:31;;;;;;;18.63;3.08;;;7.40;84.10;;;;;;5095620;28;20040;-79
2023/12/22 07:35:56;;;;;;;17.55;4.57;;;7.50;84.50;;;;;;5085869;28;20032;-79
2023/12/22 07:38:22;;;;;;;21.25;4.00;;;7.40;84.60;;;;;;5081549;28;20036;-78
2023/12/22 07:40:48;;;;;;;12.70;2.70;;;7.40;84.80;;;;;;5071728;28;20044;-79
2023/12/22 07:43:14;;;;;;;12.20;2.35;;;7.50;85.10;;;;;;5055241;28;20047;-78
2023/12/22 07:45:39;;;;;;;14.73;3.42;;;7.50;84.90;;;;;;5038568;28;20041;-80
2023/12/22 07:48:06;;;;;;;10.30;2.20;;;7.50;84.50;;;;;;5054479;28;20489;-78
2023/12/22 07:50:32;;;;;;;5.70;1.15;;;7.50;84.20;;;;;;5071707;28;20051;-80
2023/12/22 07:52:58;;;;;;;7.45;2.45;;;7.50;84.20;;;;;;5038586;28;20037;-80
2023/12/22 07:55:24;;;;;;;8.07;1.90;;;7.40;84.30;;;;;;5055234;28;20032;-79
2023/12/22 07:57:50;;;;;;;5.30;2.00;;;7.50;84.00;;;;;;5060789;28;20043;-80
2023/12/22 08:00:17;;;;;;;7.80;1.90;;;7.40;84.00;;;;;;5075275;28;20052;-79
2023/12/22 08:02:43;;;;;;;10.18;1.38;;;7.40;83.70;;;;;;5091905;28;20058;-80
2023/12/22 08:05:09;;;;;;;4.93;0.93;;;7.40;83.20;;;;;;5075147;28;20036;-80
2023/12/22 08:07:36;;;;;;;2.60;0.60;;;7.40;82.30;;;;;;5091422;28;20040;-80
2023/12/22 08:10:02;;;;;;;4.95;1.15;;;7.30;81.80;;;;;;5071521;28;20040;-81
2023/12/22 08:12:28;;;;;;;1.83;0.65;;;7.20;82.20;;;;;;5058481;28;20032;-80
2023/12/22 08:14:54;;;;;;;3.67;1.02;;;7.20;81.70;;;;;;5058039;28;20498;-80
2023/12/22 08:17:20;;;;;;;2.97;1.17;;;7.10;82.00;;;;;;5066428;28;20036;-79
2023/12/22 08:19:45;;;;;;;5.07;1.13;;;7.10;81.80;;;;;;5058616;28;20037;-79
2023/12/22 08:22:14;;;;;;;4.57;0.98;;;7.00;81.90;;;;;;5038772;28;20040;-80
2023/12/22 08:24:41;;;;;;;5.53;1.00;;;7.00;82.40;;;;;;5054653;28;20041;-81
2023/12/22 08:27:07;;;;;;;5.18;1.73;;;7.00;81.90;;;;;;5071616;28;20044;-81
2023/12/22 08:29:33;;;;;;;2.92;1.33;;;7.00;81.80;;;;;;5071622;28;20044;-82
2023/12/22 08:32:00;;;;;;;5.10;1.13;;;6.90;82.00;;;;;;5055087;28;20041;-78
2023/12/22 08:34:26;;;;;;;4.13;1.30;;;6.90;81.40;;;;;;5055104;28;20099;-81
2023/12/22 08:36:52;;;;;;;6.30;1.10;;;6.90;81.20;;;;;;5055273;28;20484;-80
2023/12/22 08:39:17;;;;;;;6.50;1.40;;;6.90;81.10;;;;;;5021976;28;20082;-81
2023/12/22 08:41:43;;;;;;;7.15;1.88;;;6.90;81.30;;;;;;5037632;28;20079;-81
2023/12/22 08:44:09;;;;;;;5.15;1.75;;;6.90;81.90;;;;;;5054350;28;20036;-80
2023/12/22 08:46:35;;;;;;;12.40;2.67;;;6.90;82.60;;;;;;5054423;28;20056;-82
2023/12/22 08:49:02;;;;;;;11.52;2.92;;;6.90;83.20;;;;;;5038164;28;20048;-82
2023/12/22 08:51:28;;;;;;;15.70;3.67;;;6.80;83.60;;;;;;5071815;28;20072;-81
2023/12/22 08:53:55;;;;;;;11.18;2.53;;;6.80;84.00;;;;;;5054655;28;20041;-82
2023/12/22 08:56:24;;;;;;;10.75;1.95;;;6.80;84.60;;;;;;5054671;28;20072;-82
2023/12/22 08:58:54;;;;;;;12.60;2.35;;;6.80;85.00;;;;;;5054599;28;20044;-81
2023/12/22 09:01:20;;;;;;;12.05;2.53;;;6.80;85.30;;;;;;5071541;28;20415;-82
2023/12/22 09:03:46;;;;;;;12.50;2.70;;;6.70;85.40;;;;;;5071198;28;20044;-80
2023/12/22 09:06:16;;;;;;;20.27;3.97;;;6.70;85.70;;;;;;5078591;28;20062;-80
2023/12/22 09:08:42;;;;;;;13.23;2.17;;;6.70;85.90;;;;;;5063109;28;20068;-80
2023/12/22 09:11:10;;;;;;;19.02;3.83;;;6.80;86.00;;;;;;5080152;28;20495;-80
2023/12/22 09:13:36;;;;;;;13.95;2.40;;;6.80;86.10;;;;;;5040862;28;20064;-80
2023/12/22 09:16:05;;;;;;;10.32;2.40;;;6.80;86.20;;;;;;5038134;28;20043;-82
2023/12/22 09:18:31;;;;;;;14.30;2.92;;;6.80;86.30;;;;;;5038496;28;20040;-81
2023/12/22 09:20:57;;;;;;;11.45;3.33;;;6.90;86.50;;;;;;5054731;28;20048;-80
2023/12/22 09:23:23;;;;;;;9.95;2.22;;;6.90;86.60;;;;;;5054266;28;20083;-80
2023/12/22 09:25:49;;;;;;;10.60;3.55;;;7.00;86.50;;;;;;5071140;28;20086;-80
2023/12/22 09:28:15;;;;;;;11.57;3.83;;;7.00;86.70;;;;;;5054406;28;20032;-80
2023/12/22 09:30:41;;;;;;;14.35;2.63;;;7.00;86.70;;;;;;5054348;28;20440;-80
2023/12/22 09:33:12;;;;;;;12.25;2.72;;;7.10;86.80;;;;;;5054329;28;20385;-82
2023/12/22 09:35:41;;;;;;;11.35;2.55;;;7.10;86.70;;;;;;5039571;28;20047;-80
2023/12/22 09:38:09;;;;;;;12.38;2.63;;;7.10;86.90;;;;;;5057994;28;20051;-82
2023/12/22 09:40:36;;;;;;;13.55;2.85;;;7.10;87.10;;;;;;5074566;28;20105;-81
2023/12/22 09:43:02;;;;;;;12.05;2.65;;;7.10;87.20;;;;;;5057875;28;20131;-81
2023/12/22 09:45:30;;;;;;;14.40;2.42;;;7.20;87.40;;;;;;5074498;28;20051;-80
2023/12/22 09:47:58;;;;;;;7.90;2.53;;;7.30;87.50;;;;;;5041035;28;20053;-79
2023/12/22 09:50:26;;;;;;;13.88;3.15;;;7.30;87.70;;;;;;5057910;28;20140;-81
2023/12/22 09:52:51;;;;;;;10.05;3.13;;;7.30;87.50;;;;;;5057697;28;20520;-80
2023/12/22 09:55:17;;;;;;;9.85;2.45;;;7.30;87.70;;;;;;5057537;28;20036;-81
2023/12/22 09:57:45;;;;;;;17.15;2.92;;;7.40;87.80;;;;;;5057725;28;20050;-81
2023/12/22 10:00:12;;;;;;;13.45;3.08;;;7.40;87.80;;;;;;5057583;28;20098;-81
2023/12/22 10:02:39;;;;;;;11.73;3.38;;;7.40;87.80;;;;;;5040969;28;20076;-80
2023/12/22 10:05:05;;;;;;;16.10;2.70;;;7.50;88.00;;;;;;5041011;28;20047;-81
2023/12/22 10:07:33;;;;;;;18.77;3.55;;;7.50;87.80;;;;;;5057380;28;20041;-80
2023/12/22 10:10:00;;;;;;;23.77;4.03;;;7.50;88.20;;;;;;5074265;28;20067;-81
2023/12/22 10:12:30;;;;;;;14.18;3.10;;;7.50;88.10;;;;;;5040409;28;20093;-80
2023/12/22 10:14:57;;;;;;;15.57;3.13;;;7.50;88.30;;;;;;5057296;28;20040;-81
2023/12/22 10:17:23;;;;;;;18.15;3.53;;;7.50;88.30;;;;;;5074233;28;20040;-80
2023/12/22 10:19:49;;;;;;;14.10;3.40;;;7.60;88.60;;;;;;5057179;28;20040;-81
2023/12/22 10:22:14;;;;;;;19.23;3.75;;;7.60;88.60;;;;;;5057385;28;20048;-80
2023/12/22 10:24:50;;;;;;;14.57;2.47;;;7.60;88.60;;;;;;5057230;28;20530;-81
2023/12/22 10:27:23;;;;;;;14.00;2.70;;;7.70;88.60;;;;;;5057151;28;20048;-80
2023/12/22 10:29:56;;;;;;;14.25;2.67;;;7.60;88.60;;;;;;5057934;28;20097;-78
2023/12/22 10:32:22;;;;;;;12.15;2.42;;;7.70;88.80;;;;;;5045445;28;20036;-81
2023/12/22 10:34:51;;;;;;;11.05;2.92;;;7.70;88.80;;;;;;5062849;28;20123;-81
2023/12/22 10:37:16;;;;;;;6.68;1.90;;;7.70;88.80;;;;;;5107148;28;20036;-80
2023/12/22 10:39:42;;;;;;;11.75;1.92;;;7.80;88.70;;;;;;5067899;28;20523;-81
2023/12/22 10:42:09;;;;;;;13.50;2.88;;;7.80;88.90;;;;;;5075032;28;20489;-81
2023/12/22 10:44:39;;;;;;;9.80;2.60;;;7.80;88.90;;;;;;5072249;28;20158;-81
2023/12/22 10:47:06;;;;;;;8.27;2.10;;;7.70;89.00;;;;;;5048145;28;20413;-80
2023/12/22 10:49:32;;;;;;;8.73;2.70;;;7.80;89.00;;;;;;5082039;28;20035;-81
2023/12/22 10:51:58;;;;;;;11.10;2.15;;;7.80;89.00;;;;;;5079323;28;20052;-80
2023/12/22 10:54:23;;;;;;;6.00;1.33;;;7.80;89.20;;;;;;5064935;28;20036;-80
2023/12/22 10:56:49;;;;;;;18.92;3.72;;;7.80;89.40;;;;;;5084917;28;20043;-80
2023/12/22 10:59:23;;;;;;;19.13;3.20;;;7.90;89.20;;;;;;5045338;28;20094;-80
2023/12/22 11:01:51;;;;;;;13.65;3.08;;;7.90;89.20;;;;;;5048973;28;20047;-80
2023/12/22 11:04:20;;;;;;;20.92;3.67;;;7.90;89.20;;;;;;5063467;28;20093;-80
2023/12/22 11:06:49;;;;;;;12.38;3.05;;;7.90;89.30;;;;;;5075738;28;20941;-81
2023/12/22 11:09:17;;;;;;;12.43;2.75;;;8.00;89.40;;;;;;5059821;28;20068;-81
2023/12/22 11:11:44;;;;;;;11.30;2.45;;;8.00;89.40;;;;;;5063745;28;20040;-81
2023/12/22 11:14:11;;;;;;;13.77;3.17;;;8.00;89.30;;;;;;5058160;28;20040;-81
2023/12/22 11:16:36;;;;;;;16.25;2.83;;;8.00;89.20;;;;;;5080665;28;20618;-81
2023/12/22 11:19:03;;;;;;;14.93;3.65;;;8.10;89.30;;;;;;5101809;28;20047;-80
2023/12/22 11:21:30;;;;;;;13.68;3.03;;;8.00;89.10;;;;;;5083763;28;20040;-80
2023/12/22 11:23:59;;;;;;;12.95;2.05;;;8.10;89.10;;;;;;5100189;28;20078;-82
2023/12/22 11:26:26;;;;;;;13.10;2.78;;;8.10;88.80;;;;;;5076505;28;20086;-79
2023/12/22 11:28:52;;;;;;;13.10;2.47;;;8.10;88.80;;;;;;5079754;28;20463;-80
2023/12/22 11:31:20;;;;;;;7.90;2.20;;;8.10;88.60;;;;;;5065447;28;20134;-79
2023/12/22 11:33:50;;;;;;;16.67;3.40;;;8.10;88.20;;;;;;5063842;28;21126;-80
2023/12/22 11:36:17;;;;;;;14.32;2.38;;;8.10;88.10;;;;;;5057757;28;20075;-80
2023/12/22 11:38:45;;;;;;;12.95;2.35;;;8.10;88.00;;;;;;5066636;28;20043;-80
2023/12/22 11:41:27;;;;;;;10.80;2.30;;;8.10;87.60;;;;;;5092742;28;20052;-79
2023/12/22 11:43:54;;;;;;;12.10;2.70;;;8.10;87.80;;;;;;5055071;28;20496;-81
2023/12/22 11:46:20;;;;;;;9.98;2.20;;;8.10;87.90;;;;;;5072799;28;20094;-82
2023/12/22 11:48:50;;;;;;;12.82;3.33;;;8.10;87.80;;;;;;5069419;28;20508;-81
2023/12/22 11:51:17;;;;;;;11.23;2.05;;;8.10;87.90;;;;;;5079963;28;20041;-83
2023/12/22 11:53:44;;;;;;;12.15;3.40;;;8.10;88.10;;;;;;5078494;28;20182;-82
2023/12/22 11:56:11;;;;;;;14.55;3.08;;;8.10;88.10;;;;;;5082373;28;20040;-83
2023/12/22 11:58:50;;;;;;;16.23;2.95;;;8.10;88.10;;;;;;5093605;28;20031;-82
2023/12/22 12:01:17;;;;;;;14.05;2.88;;;8.10;88.20;;;;;;5071394;28;20051;-79
2023/12/22 12:03:55;;;;;;;16.52;2.80;;;8.10;88.20;;;;;;5092101;28;20047;-80
2023/12/22 12:06:30;;;;;;;11.05;2.28;;;8.10;88.30;;;;;;5080025;28;20181;-80
2023/12/22 12:09:04;;;;;;;11.50;2.17;;;8.10;88.40;;;;;;5061940;28;20140;-81
2023/12/22 12:11:48;;;;;;;;;;;8.10;88.40;;;;;;5061672;28;20041;-80
2023/12/22 12:14:15;;;;;;;11.90;2.78;;;8.10;88.10;;;;;;5065927;28;20426;-78
2023/12/22 12:16:42;;;;;;;10.35;3.28;;;8.00;88.20;;;;;;5087866;28;20072;-80
2023/12/22 12:19:09;;;;;;;15.23;2.95;;;8.10;88.30;;;;;;5075677;28;20119;-80
2023/12/22 12:21:35;;;;;;;13.35;2.45;;;8.10;88.20;;;;;;5075534;28;20046;-82
2023/12/22 12:24:05;;;;;;;17.30;3.05;;;8.10;88.30;;;;;;5075496;28;20040;-81
2023/12/22 12:26:33;;;;;;;19.10;3.85;;;8.00;88.50;;;;;;5051907;28;20033;-81
2023/12/22 12:28:59;;;;;;;13.82;2.83;;;8.10;88.60;;;;;;5055415;28;20051;-82
2023/12/22 12:31:45;;;;;;;19.90;3.00;;;8.10;89.00;;;;;;5055502;28;20396;-84
2023/12/22 12:34:11;;;;;;;15.13;2.90;;;8.10;89.20;;;;;;5038401;28;20082;-82
2023/12/22 12:36:38;;;;;;;13.25;2.47;;;8.00;89.40;;;;;;5039224;28;20362;-81
2023/12/22 12:39:08;;;;;;;16.00;2.80;;;8.00;89.80;;;;;;5038981;28;20048;-83
2023/12/22 12:41:40;;;;;;;14.25;3.63;;;8.00;89.80;;;;;;5055625;28;20052;-82
2023/12/22 12:44:06;;;;;;;15.30;2.95;;;8.00;90.20;;;;;;5072212;28;20049;-83
2023/12/22 12:46:39;;;;;;;14.48;2.83;;;8.00;90.20;;;;;;5055242;28;20548;-81